createdAt,value
2017-07-31T00:01:31.088Z,99842.98
2017-07-31T00:04:34.409Z,99829.07
2017-07-31T00:07:37.714Z,99817.27
2017-07-31T00:10:41.056Z,99800.23
2017-07-31T00:13:44.335Z,99781.45
2017-07-31T00:16:48.422Z,99779.22
2017-07-31T00:19:51.717Z,99767.76
2017-07-31T00:22:55.035Z,99768.91
2017-07-31T00:25:59.322Z,99768.06
2017-07-31T00:29:02.624Z,99773.32
2017-07-31T00:32:05.962Z,99776.84
2017-07-31T00:35:09.238Z,99787.48
2017-07-31T00:38:13.336Z,99790.02
2017-07-31T00:41:16.647Z,99787.17
2017-07-31T00:44:19.962Z,99791.83
2017-07-31T00:47:23.259Z,99792.27
2017-07-31T00:50:26.590Z,99798.84
2017-07-31T00:53:29.921Z,99809.44
2017-07-31T00:56:33.201Z,99810.13
2017-07-31T00:59:36.545Z,99806.92
2017-07-31T01:02:39.858Z,99801.73
2017-07-31T01:05:43.167Z,99803.17
2017-07-31T01:08:46.475Z,99800.75
2017-07-31T01:11:49.801Z,99791.37
2017-07-31T01:14:53.873Z,99790.80
2017-07-31T01:17:57.185Z,99786.91
2017-07-31T01:21:00.602Z,99790.25
2017-07-31T01:24:03.883Z,99790.94
2017-07-31T01:27:07.201Z,99790.77
2017-07-31T01:30:11.268Z,99793.13
2017-07-31T01:33:14.578Z,99792.67
2017-07-31T01:36:17.855Z,99796.88
2017-07-31T01:39:21.197Z,99788.39
2017-07-31T01:42:24.514Z,99792.73
2017-07-31T01:45:28.581Z,99793.83
2017-07-31T01:48:31.890Z,99791.20
2017-07-31T01:51:35.197Z,99780.13
2017-07-31T01:54:38.513Z,99783.21
2017-07-31T01:57:42.558Z,99782.59
2017-07-31T02:00:45.865Z,99779.17
2017-07-31T02:03:49.146Z,99770.63
2017-07-31T02:06:52.492Z,99763.27
2017-07-31T02:09:55.813Z,99770.04
2017-07-31T02:12:59.109Z,99761.31
2017-07-31T02:16:02.447Z,99762.30
2017-07-31T02:19:05.729Z,99764.36
2017-07-31T02:22:09.038Z,99775.48
2017-07-31T02:25:12.349Z,99781.91
2017-07-31T02:28:15.685Z,99795.17
2017-07-31T02:31:19.872Z,99796.41
2017-07-31T02:34:23.173Z,99793.45
2017-07-31T02:37:26.493Z,99801.88
2017-07-31T02:40:30.539Z,99805.13
2017-07-31T02:43:33.849Z,99800.16
2017-07-31T02:46:37.122Z,99810.47
2017-07-31T02:49:40.432Z,99806.22
2017-07-31T02:52:43.884Z,99794.34
2017-07-31T02:55:47.930Z,99803.83
2017-07-31T02:58:51.269Z,99809.91
2017-07-31T03:01:54.545Z,99813.27
2017-07-31T03:04:57.880Z,99819.21
2017-07-31T03:08:01.161Z,99815.03
2017-07-31T03:11:04.497Z,99826.88
2017-07-31T03:14:07.815Z,99826.08
2017-07-31T03:17:11.092Z,99832.35
2017-07-31T03:20:14.411Z,99818.28
2017-07-31T03:23:17.708Z,99819.25
2017-07-31T03:26:21.042Z,99815.14
2017-07-31T03:29:24.345Z,99801.18
2017-07-31T03:32:27.653Z,99812.29
2017-07-31T03:35:31.723Z,99817.56
2017-07-31T03:38:35.046Z,99817.03
2017-07-31T03:41:38.475Z,99823.38
2017-07-31T03:44:42.521Z,99823.40
2017-07-31T03:47:45.833Z,99828.38
2017-07-31T03:50:49.136Z,99831.34
2017-07-31T03:53:52.451Z,99837.35
2017-07-31T03:56:55.732Z,99831.55
2017-07-31T03:59:59.129Z,99840.32
2017-07-31T04:03:02.402Z,99844.77
2017-07-31T04:06:05.732Z,99833.44
2017-07-31T04:09:09.178Z,99846.76
2017-07-31T04:12:12.450Z,99838.78
2017-07-31T04:15:16.634Z,99833.37
2017-07-31T04:18:19.941Z,99839.06
2017-07-31T04:21:23.759Z,99831.88
2017-07-31T04:24:27.047Z,99830.35
2017-07-31T04:27:30.380Z,99841.58
2017-07-31T04:30:33.790Z,99833.92
2017-07-31T04:33:37.108Z,99834.30
2017-07-31T04:36:40.444Z,99838.22
2017-07-31T04:39:44.487Z,99852.39
2017-07-31T04:42:47.821Z,99849.66
2017-07-31T04:45:51.124Z,99853.98
2017-07-31T04:48:54.465Z,99851.98
2017-07-31T04:51:57.883Z,99855.86
2017-07-31T04:55:01.206Z,99862.89
2017-07-31T04:58:04.517Z,99854.80
2017-07-31T05:01:07.803Z,99851.52
2017-07-31T05:04:11.184Z,99850.84
2017-07-31T05:07:14.461Z,99855.84
2017-07-31T05:10:17.801Z,99861.95
2017-07-31T05:13:21.104Z,99844.87
2017-07-31T05:16:24.414Z,99854.06
2017-07-31T05:19:28.454Z,99845.37
2017-07-31T05:22:31.790Z,99841.09
2017-07-31T05:25:35.229Z,99844.48
2017-07-31T05:28:39.389Z,99857.59
2017-07-31T05:31:42.699Z,99851.23
2017-07-31T05:34:45.976Z,99849.02
2017-07-31T05:37:49.290Z,99843.68
2017-07-31T05:40:52.565Z,99846.23
2017-07-31T05:43:56.019Z,99844.72
2017-07-31T05:46:59.304Z,99846.56
2017-07-31T05:53:05.997Z,99850.95
2017-07-31T05:56:09.307Z,99850.79
2017-07-31T05:59:13.798Z,99854.13
2017-07-31T06:02:17.102Z,99846.00
2017-07-31T06:05:20.422Z,99837.17
2017-07-31T06:08:24.470Z,99841.58
2017-07-31T06:11:27.779Z,99838.55
2017-07-31T06:14:31.062Z,99835.37
2017-07-31T06:17:34.397Z,99845.17
2017-07-31T06:20:37.850Z,99852.38
2017-07-31T06:23:41.127Z,99852.12
2017-07-31T06:26:45.225Z,99857.47
2017-07-31T06:29:48.529Z,99871.30
2017-07-31T06:32:52.610Z,99879.84
2017-07-31T06:35:55.917Z,99888.57
2017-07-31T06:38:59.262Z,99885.98
2017-07-31T06:42:02.567Z,99883.91
2017-07-31T06:45:05.874Z,99893.25
2017-07-31T06:48:09.313Z,99895.14
2017-07-31T06:51:12.603Z,99894.41
2017-07-31T06:54:15.911Z,99903.55
2017-07-31T06:57:19.196Z,99895.07
2017-07-31T07:00:22.513Z,99896.38
2017-07-31T07:03:26.563Z,99893.73
2017-07-31T07:06:29.884Z,99898.30
2017-07-31T07:09:33.215Z,99896.94
2017-07-31T07:12:36.522Z,99911.30
2017-07-31T07:15:39.851Z,99899.89
2017-07-31T07:18:43.157Z,99900.53
2017-07-31T07:21:46.471Z,99908.07
2017-07-31T07:24:49.760Z,99908.16
2017-07-31T07:27:53.097Z,99904.66
2017-07-31T07:30:56.404Z,99911.73
2017-07-31T07:33:59.736Z,99914.42
2017-07-31T07:37:03.604Z,99912.94
2017-07-31T07:40:07.838Z,99904.31
2017-07-31T07:43:11.304Z,99906.11
2017-07-31T07:46:14.605Z,99904.94
2017-07-31T07:49:17.942Z,99904.27
2017-07-31T07:52:21.982Z,99911.20
2017-07-31T07:55:25.337Z,99922.16
2017-07-31T07:58:29.471Z,99915.78
2017-07-31T08:01:32.754Z,99924.75
2017-07-31T08:04:36.830Z,99927.34
2017-07-31T08:07:40.112Z,99922.03
2017-07-31T08:10:43.450Z,99922.65
2017-07-31T08:13:46.757Z,99923.23
2017-07-31T08:16:50.070Z,99910.80
2017-07-31T08:19:53.371Z,99911.29
2017-07-31T08:22:56.706Z,99913.33
2017-07-31T08:25:59.999Z,99904.80
2017-07-31T08:29:03.338Z,99907.57
2017-07-31T08:32:07.387Z,99912.41
2017-07-31T08:35:10.734Z,99908.64
2017-07-31T08:38:14.346Z,99916.67
2017-07-31T08:41:18.421Z,99913.28
2017-07-31T08:44:21.770Z,99916.27
2017-07-31T08:47:25.842Z,99910.63
2017-07-31T08:50:29.191Z,99906.56
2017-07-31T08:53:32.502Z,99921.13
2017-07-31T08:56:35.831Z,99918.81
2017-07-31T08:59:39.140Z,99920.38
2017-07-31T09:02:42.458Z,99925.13
2017-07-31T09:05:46.573Z,99925.48
2017-07-31T09:08:50.626Z,99922.26
2017-07-31T09:11:53.973Z,99937.39
2017-07-31T09:14:58.038Z,99943.81
2017-07-31T09:18:01.375Z,99937.80
2017-07-31T09:21:04.695Z,99936.97
2017-07-31T09:24:08.785Z,99949.29
2017-07-31T09:27:12.102Z,99940.16
2017-07-31T09:30:16.223Z,99939.05
2017-07-31T09:33:19.685Z,99945.08
2017-07-31T09:36:23.001Z,99937.77
2017-07-31T09:39:27.095Z,99944.32
2017-07-31T09:42:31.161Z,99939.50
2017-07-31T09:45:34.486Z,99946.33
2017-07-31T09:48:37.774Z,99945.69
2017-07-31T09:51:41.129Z,99947.17
2017-07-31T09:54:44.804Z,99943.92
2017-07-31T09:57:48.102Z,99957.55
2017-07-31T10:00:51.429Z,99952.26
2017-07-31T10:03:54.749Z,99958.02
2017-07-31T10:06:58.100Z,99963.87
2017-07-31T10:10:01.413Z,99962.72
2017-07-31T16:00:45.736Z,99917.52
2017-07-31T16:03:47.521Z,99909.84
2017-07-31T16:06:48.940Z,99920.13
2017-07-31T16:09:50.340Z,99936.33
2017-07-31T16:12:51.732Z,99932.69
2017-07-31T16:15:53.223Z,99924.03
2017-07-31T16:18:54.751Z,99942.89
2017-07-31T16:21:56.118Z,99943.00
2017-07-31T16:24:57.821Z,99938.31
2017-07-31T16:27:59.291Z,99929.95
2017-07-31T16:31:01.493Z,99917.89
2017-07-31T16:34:03.054Z,99925.63
2017-07-31T16:40:53.600Z,99936.09
2017-07-31T16:43:55.866Z,99929.70
2017-07-31T16:46:58.095Z,99912.98
2017-07-31T16:49:59.541Z,99914.56
2017-07-31T16:53:00.926Z,99914.30
2017-07-31T16:56:02.470Z,99915.87
2017-07-31T16:59:04.006Z,99929.89
2017-07-31T17:02:05.459Z,99920.73
2017-07-31T17:05:06.905Z,99922.55
2017-07-31T17:08:08.227Z,99918.86
2017-07-31T17:11:09.620Z,99904.42
2017-07-31T17:14:11.011Z,99904.80
2017-07-31T17:17:13.167Z,99913.36
2017-07-31T17:20:15.271Z,99917.94
2017-07-31T17:23:16.636Z,99910.16
2017-07-31T17:26:18.228Z,99903.59
2017-07-31T17:29:19.553Z,99899.64
2017-07-31T17:32:20.925Z,99910.53
2017-07-31T17:35:22.292Z,99915.22
2017-07-31T17:38:23.812Z,99916.53
2017-07-31T17:41:25.183Z,99908.13
2017-07-31T17:44:26.875Z,99897.88
2017-07-31T17:47:28.249Z,99905.16
2017-07-31T17:50:31.755Z,99912.23
2017-07-31T17:53:33.150Z,99910.00
2017-07-31T17:56:35.964Z,99906.66
2017-07-31T17:59:37.664Z,99905.81
2017-07-31T18:02:40.748Z,99907.35
2017-07-31T18:05:42.939Z,99906.24
2017-07-31T18:08:46.359Z,99906.17
2017-07-31T18:11:48.524Z,99916.04
2017-07-31T18:14:52.248Z,99920.93
2017-07-31T18:17:53.653Z,99921.75
2017-07-31T18:20:55.033Z,99907.53
2017-07-31T18:23:59.462Z,99898.43
2017-07-31T18:27:03.469Z,99893.38
2017-07-31T18:30:04.927Z,99896.67
2017-07-31T18:33:06.460Z,99908.28
2017-07-31T18:36:09.622Z,99917.58
2017-07-31T18:39:12.497Z,99905.81
2017-07-31T18:42:15.415Z,99913.34
2017-07-31T18:45:18.518Z,99928.05
2017-07-31T18:48:23.244Z,99937.48
2017-07-31T18:51:24.718Z,99933.66
2017-07-31T18:54:28.758Z,99940.98
2017-07-31T18:57:30.273Z,99944.52
2017-07-31T19:00:32.518Z,99945.73
2017-07-31T19:03:36.248Z,99954.16
2017-07-31T19:06:40.318Z,99950.64
2017-07-31T19:09:41.824Z,99949.55
2017-07-31T19:12:44.103Z,99953.04
2017-07-31T19:15:45.584Z,99943.19
2017-07-31T19:18:47.969Z,99953.91
2017-07-31T19:21:49.407Z,99963.72
2017-07-31T19:24:51.647Z,99941.09
2017-07-31T19:27:53.107Z,99943.10
2017-07-31T19:30:54.623Z,99954.83
2017-07-31T19:33:56.055Z,99960.30
2017-07-31T19:36:57.551Z,99958.76
2017-07-31T19:39:59.689Z,99956.69
2017-07-31T19:43:02.341Z,99955.68
2017-07-31T19:46:03.983Z,99961.84
2017-07-31T19:49:05.842Z,99972.80
2017-07-31T19:52:07.440Z,99966.20
2017-07-31T19:55:08.896Z,99968.06
2017-07-31T19:58:10.463Z,99976.28
2017-07-31T20:01:12.017Z,99970.00
2017-07-31T20:04:13.474Z,99977.23
2017-07-31T20:07:15.102Z,99980.08
2017-07-31T20:10:16.586Z,99990.37
2017-07-31T20:13:18.518Z,99993.18
2017-07-31T20:16:19.941Z,99988.89
2017-07-31T20:19:21.482Z,99968.28
2017-07-31T20:22:23.028Z,99963.45
2017-07-31T20:25:24.475Z,99969.97
2017-07-31T20:28:26.108Z,99967.20
2017-07-31T20:31:27.567Z,99968.13
2017-07-31T20:34:29.107Z,99992.41
2017-07-31T20:37:30.522Z,99993.84
2017-07-31T20:40:31.942Z,100001.50
2017-07-31T20:43:33.498Z,100001.65
2017-07-31T20:46:34.920Z,100001.76
2017-07-31T20:49:36.368Z,99990.52
2017-07-31T20:52:37.810Z,99993.48
2017-07-31T20:55:39.510Z,99996.91
2017-07-31T20:58:41.307Z,100004.72
2017-07-31T21:01:43.015Z,99995.30
2017-07-31T21:04:44.837Z,99989.89
2017-07-31T21:07:46.477Z,99980.98
2017-07-31T21:10:48.237Z,99979.06
2017-07-31T21:13:50.113Z,99971.26
2017-07-31T21:16:51.610Z,99975.47
2017-07-31T21:19:53.110Z,99978.25
2017-07-31T21:22:54.635Z,99981.80
2017-07-31T21:25:56.195Z,99980.47
2017-07-31T21:28:57.582Z,99981.80
2017-07-31T21:31:58.998Z,99971.21
2017-07-31T21:35:00.399Z,99980.47
2017-07-31T21:38:01.800Z,99981.28
2017-07-31T21:41:03.266Z,99980.03
2017-07-31T21:44:05.477Z,99978.23
2017-07-31T21:47:06.936Z,99990.49
2017-07-31T21:50:08.323Z,99997.91
2017-07-31T21:53:09.767Z,100010.83
2017-07-31T21:56:11.438Z,100003.24
2017-07-31T21:59:12.860Z,100001.17
2017-07-31T22:02:14.283Z,99995.45
2017-07-31T22:05:15.880Z,100019.76
2017-07-31T22:08:17.311Z,100013.39
2017-07-31T22:11:18.755Z,100001.78
2017-07-31T22:14:20.195Z,99996.86
2017-07-31T22:17:27.716Z,99986.09
2017-07-31T22:23:47.600Z,99975.23
2017-07-31T22:26:49.015Z,99967.19
2017-07-31T22:29:51.250Z,99965.03
2017-07-31T22:32:52.712Z,99958.04
2017-07-31T22:35:54.219Z,99960.44
2017-07-31T22:38:55.663Z,99954.58
2017-07-31T22:41:57.098Z,99960.39
2017-07-31T22:44:59.292Z,99956.31
2017-07-31T22:48:00.719Z,99961.44
2017-07-31T22:51:02.157Z,99983.89
2017-07-31T22:54:03.549Z,99978.09
2017-07-31T22:57:04.975Z,99980.47
2017-07-31T23:00:06.342Z,99982.79
2017-07-31T23:03:07.801Z,99987.13
2017-07-31T23:06:09.233Z,99971.75
2017-07-31T23:09:10.722Z,99970.78
2017-07-31T23:12:12.134Z,99966.11
2017-07-31T23:15:13.544Z,99978.61
2017-07-31T23:18:15.743Z,99979.28
2017-07-31T23:21:17.254Z,99995.27
2017-07-31T23:24:19.720Z,100012.53
2017-07-31T23:27:21.086Z,100015.19
2017-07-31T23:30:22.608Z,100012.66
2017-07-31T23:33:24.178Z,100013.44
2017-07-31T23:36:25.616Z,100021.70
2017-07-31T23:39:27.012Z,100023.10
2017-07-31T23:42:28.551Z,100015.80
2017-07-31T23:45:30.750Z,100005.06
2017-07-31T23:48:32.185Z,99976.85
2017-07-31T23:51:33.798Z,99934.81
2017-07-31T23:54:35.230Z,99913.53
2017-07-31T23:57:36.704Z,99884.91
